createdAt,value
2019-05-11T00:00:21.425Z,1011.85
2019-05-11T00:00:51.388Z,1011.87
2019-05-11T00:01:21.449Z,1011.89
2019-05-11T00:02:24.269Z,1011.89
2019-05-11T00:02:51.382Z,1011.88
2019-05-11T00:03:21.430Z,1011.94
2019-05-11T00:03:51.360Z,1011.92
2019-05-11T00:04:51.361Z,1011.88
2019-05-11T00:05:21.424Z,1011.85
2019-05-11T00:05:51.361Z,1011.85
2019-05-11T00:06:24.162Z,1011.82
2019-05-11T00:07:21.437Z,1011.81
2019-05-11T00:07:51.379Z,1011.81
2019-05-11T00:08:21.456Z,1011.82
2019-05-11T00:08:51.363Z,1011.81
2019-05-11T00:09:58.313Z,1011.82
2019-05-11T00:10:24.506Z,1011.80
2019-05-11T00:10:51.366Z,1011.79
2019-05-11T00:11:21.425Z,1011.82
2019-05-11T00:12:21.431Z,1011.79
2019-05-11T00:12:54.174Z,1011.79
2019-05-11T00:13:21.431Z,1011.81
2019-05-11T00:13:51.373Z,1011.82
2019-05-11T00:14:51.379Z,1011.77
2019-05-11T00:15:21.427Z,1011.79
2019-05-11T00:15:51.371Z,1011.77
2019-05-11T00:16:21.424Z,1011.77
2019-05-11T00:16:54.206Z,1011.74
2019-05-11T00:17:51.518Z,1011.72
2019-05-11T00:18:21.433Z,1011.70
2019-05-11T00:18:51.365Z,1011.68
2019-05-11T00:19:51.367Z,1011.69
2019-05-11T00:20:21.426Z,1011.70
2019-05-11T00:20:51.365Z,1011.71
2019-05-11T00:21:21.459Z,1011.74
2019-05-11T00:22:21.431Z,1011.76
2019-05-11T00:22:51.361Z,1011.72
2019-05-11T00:23:24.169Z,1011.71
2019-05-11T00:23:51.367Z,1011.71
2019-05-11T00:24:51.388Z,1011.68
2019-05-11T00:25:21.442Z,1011.68
2019-05-11T00:25:51.371Z,1011.64
2019-05-11T00:26:21.544Z,1011.66
2019-05-11T00:27:24.207Z,1011.65
2019-05-11T00:27:51.362Z,1011.62
2019-05-11T00:28:21.431Z,1011.64
2019-05-11T00:28:51.376Z,1011.62
2019-05-11T00:29:51.378Z,1011.61
2019-05-11T00:30:21.440Z,1011.60
2019-05-11T00:30:51.378Z,1011.60
2019-05-11T00:31:21.433Z,1011.60
2019-05-11T00:32:23.460Z,1011.64
2019-05-11T00:32:51.372Z,1011.63
2019-05-11T00:33:21.437Z,1011.62
2019-05-11T00:33:54.139Z,1011.61
2019-05-11T00:34:51.374Z,1011.62
2019-05-11T00:35:21.441Z,1011.63
2019-05-11T00:35:51.378Z,1011.66
2019-05-11T00:36:21.430Z,1011.65
2019-05-11T00:37:21.434Z,1011.65
2019-05-11T00:37:54.134Z,1011.65
2019-05-11T00:38:21.438Z,1011.65
2019-05-11T00:38:51.375Z,1011.65
2019-05-11T00:39:51.370Z,1011.65
2019-05-11T00:40:21.436Z,1011.62
2019-05-11T00:40:51.376Z,1011.60
2019-05-11T00:41:21.445Z,1011.57
2019-05-11T00:42:21.432Z,1011.57
2019-05-11T00:42:51.372Z,1011.60
2019-05-11T00:43:21.434Z,1011.55
2019-05-11T00:43:51.376Z,1011.53
2019-05-11T00:44:24.244Z,1011.57
2019-05-11T00:45:21.442Z,1011.56
2019-05-11T00:45:51.400Z,1011.54
2019-05-11T00:46:21.443Z,1011.56
2019-05-11T00:47:21.440Z,1011.51
2019-05-11T00:47:51.378Z,1011.50
2019-05-11T00:48:24.142Z,1011.52
2019-05-11T00:48:51.378Z,1011.51
2019-05-11T00:49:27.823Z,1011.52
2019-05-11T00:49:52.956Z,1011.49
2019-05-11T00:50:36.767Z,1011.47
2019-05-11T00:50:51.400Z,1011.46
2019-05-11T00:51:21.443Z,1011.44
2019-05-11T00:52:21.441Z,1011.46
2019-05-11T00:52:51.376Z,1011.47
2019-05-11T00:53:21.438Z,1011.48
2019-05-11T00:53:51.374Z,1011.49
2019-05-11T00:54:54.144Z,1011.49
2019-05-11T00:55:21.441Z,1011.49
2019-05-11T00:55:51.378Z,1011.48
2019-05-11T00:56:21.430Z,1011.46
2019-05-11T00:57:21.437Z,1011.46
2019-05-11T00:57:51.378Z,1011.44
2019-05-11T00:58:21.446Z,1011.40
2019-05-11T00:58:54.171Z,1011.40
2019-05-11T00:59:23.446Z,1011.43
2019-05-11T01:00:21.458Z,1011.35
2019-05-11T01:00:51.383Z,1011.35
2019-05-11T01:01:21.447Z,1011.33
2019-05-11T01:02:21.438Z,1011.37
2019-05-11T01:02:51.468Z,1011.38
2019-05-11T01:03:21.449Z,1011.40
2019-05-11T01:03:51.381Z,1011.42
2019-05-11T01:04:51.379Z,1011.42
2019-05-11T01:05:24.281Z,1011.42
2019-05-11T01:05:51.401Z,1011.42
2019-05-11T01:06:21.448Z,1011.40
2019-05-11T01:07:21.443Z,1011.45
2019-05-11T01:07:51.375Z,1011.41
2019-05-11T01:08:21.435Z,1011.40
2019-05-11T01:08:51.382Z,1011.43
2019-05-11T01:09:24.176Z,1011.42
2019-05-11T01:10:41.414Z,1011.44
2019-05-11T01:10:51.388Z,1011.44
2019-05-11T01:11:21.480Z,1011.45
2019-05-11T01:12:21.450Z,1011.41
2019-05-11T01:12:51.395Z,1011.41
2019-05-11T01:13:21.442Z,1011.37
2019-05-11T01:13:51.544Z,1011.35
2019-05-11T01:14:51.386Z,1011.34
2019-05-11T01:15:21.447Z,1011.33
2019-05-11T01:15:54.192Z,1011.35
2019-05-11T01:16:21.457Z,1011.29
2019-05-11T01:17:21.449Z,1011.29
2019-05-11T01:17:51.385Z,1011.30
2019-05-11T01:18:21.448Z,1011.28
2019-05-11T01:18:51.391Z,1011.26
2019-05-11T01:19:54.189Z,1011.28
2019-05-11T01:20:21.447Z,1011.26
2019-05-11T01:20:51.389Z,1011.25
2019-05-11T01:21:21.461Z,1011.26
2019-05-11T01:22:21.560Z,1011.26
2019-05-11T01:22:51.386Z,1011.27
2019-05-11T01:23:21.453Z,1011.28
2019-05-11T01:23:51.467Z,1011.27
2019-05-11T01:24:51.381Z,1011.25
2019-05-11T01:25:21.442Z,1011.26
2019-05-11T01:25:51.380Z,1011.27
2019-05-11T01:26:24.259Z,1011.25
2019-05-11T01:27:21.456Z,1011.23
2019-05-11T01:27:51.409Z,1011.21
2019-05-11T01:28:21.446Z,1011.21
2019-05-11T01:28:51.388Z,1011.20
2019-05-11T01:29:51.386Z,1011.16
2019-05-11T01:30:24.171Z,1011.14
2019-05-11T01:30:51.394Z,1011.09
2019-05-11T01:31:21.454Z,1011.11
2019-05-11T01:32:21.450Z,1011.07
2019-05-11T01:32:51.390Z,1011.05
2019-05-11T01:33:21.604Z,1011.08
2019-05-11T01:33:51.428Z,1011.07
2019-05-11T01:34:51.387Z,1011.03
2019-05-11T01:35:21.455Z,1010.99
2019-05-11T01:35:53.408Z,1011.01
2019-05-11T01:36:21.451Z,1010.97
2019-05-11T01:36:54.220Z,1010.96
2019-05-11T01:37:51.392Z,1010.99
2019-05-11T01:38:21.454Z,1011.01
2019-05-11T01:38:51.409Z,1011.03
2019-05-11T01:39:51.386Z,1011.09
2019-05-11T01:40:21.447Z,1011.13
2019-05-11T01:41:00.274Z,1011.16
2019-05-11T01:41:21.444Z,1011.23
2019-05-11T01:42:21.459Z,1011.26
2019-05-11T01:42:51.387Z,1011.31
2019-05-11T01:43:21.453Z,1011.33
2019-05-11T01:43:51.397Z,1011.35
2019-05-11T01:44:51.414Z,1011.47
2019-05-11T01:45:21.455Z,1011.49
2019-05-11T01:45:51.391Z,1011.52
2019-05-11T01:46:21.458Z,1011.53
2019-05-11T01:47:24.285Z,1011.58
2019-05-11T01:47:51.397Z,1011.56
2019-05-11T01:48:21.459Z,1011.55
2019-05-11T01:48:51.416Z,1011.49
2019-05-11T01:49:51.387Z,1011.45
2019-05-11T01:50:21.451Z,1011.42
2019-05-11T01:50:51.387Z,1011.37
2019-05-11T01:51:24.336Z,1011.38
2019-05-11T01:52:21.455Z,1011.35
2019-05-11T01:52:51.393Z,1011.32
2019-05-11T01:53:21.451Z,1011.29
2019-05-11T01:53:51.392Z,1011.24
2019-05-11T01:54:51.389Z,1011.16
2019-05-11T01:55:21.451Z,1011.17
2019-05-11T01:55:51.386Z,1011.16
2019-05-11T01:56:21.448Z,1011.15
2019-05-11T01:57:21.452Z,1011.22
2019-05-11T01:57:54.399Z,1011.20
2019-05-11T01:58:21.463Z,1011.24
2019-05-11T01:58:51.391Z,1011.26
2019-05-11T01:59:51.399Z,1011.26
2019-05-11T02:00:21.451Z,1011.19
2019-05-11T02:00:51.397Z,1011.17
2019-05-11T02:01:21.453Z,1011.10
2019-05-11T02:01:54.267Z,1011.10
2019-05-11T02:02:51.401Z,1011.12
2019-05-11T02:03:21.460Z,1011.14
2019-05-11T02:03:51.399Z,1011.14
2019-05-11T02:04:22.465Z,1011.20
2019-05-11T02:05:21.456Z,1011.22
2019-05-11T02:05:53.407Z,1011.26
2019-05-11T02:06:21.452Z,1011.28
2019-05-11T02:07:21.471Z,1011.32
2019-05-11T02:07:51.394Z,1011.33
2019-05-11T02:08:24.177Z,1011.36
2019-05-11T02:08:51.395Z,1011.38
2019-05-11T02:09:51.395Z,1011.43
2019-05-11T02:10:21.585Z,1011.44
2019-05-11T02:10:51.391Z,1011.45
2019-05-11T02:11:21.455Z,1011.47
2019-05-11T02:12:24.237Z,1011.49
2019-05-11T02:12:51.397Z,1011.50
2019-05-11T02:13:21.457Z,1011.53
2019-05-11T02:13:51.414Z,1011.54
2019-05-11T02:14:51.400Z,1011.57
2019-05-11T02:15:21.477Z,1011.64
2019-05-11T02:15:51.402Z,1011.62
2019-05-11T02:16:21.533Z,1011.67
2019-05-11T02:17:21.461Z,1011.74
2019-05-11T02:17:51.405Z,1011.72
2019-05-11T02:18:21.468Z,1011.71
2019-05-11T02:18:54.143Z,1011.67
2019-05-11T02:19:51.403Z,1011.60
2019-05-11T02:20:21.455Z,1011.61
2019-05-11T02:20:51.397Z,1011.60
2019-05-11T02:21:21.465Z,1011.57
2019-05-11T02:22:21.465Z,1011.52
2019-05-11T02:22:54.190Z,1011.50
2019-05-11T02:23:21.465Z,1011.49
2019-05-11T02:23:51.393Z,1011.51
2019-05-11T02:24:51.396Z,1011.58
2019-05-11T02:25:21.455Z,1011.61
2019-05-11T02:25:51.399Z,1011.61
2019-05-11T02:26:20.245Z,1011.61
2019-05-11T02:26:51.490Z,1011.60
2019-05-11T02:27:21.455Z,1011.56
2019-05-11T02:27:51.399Z,1011.53
2019-05-11T02:28:21.469Z,1011.49
2019-05-11T02:28:51.431Z,1011.49
2019-05-11T02:29:24.272Z,1011.48
2019-05-11T02:29:51.400Z,1011.48
2019-05-11T02:30:21.488Z,1011.46
2019-05-11T02:30:51.483Z,1011.44
2019-05-11T02:31:21.467Z,1011.42
2019-05-11T02:32:21.500Z,1011.39
2019-05-11T02:32:51.459Z,1011.40
2019-05-11T02:33:24.329Z,1011.39
2019-05-11T02:33:51.416Z,1011.38
2019-05-11T02:34:51.409Z,1011.39
2019-05-11T02:35:21.467Z,1011.37
2019-05-11T02:35:51.406Z,1011.36
2019-05-11T02:36:21.466Z,1011.39
2019-05-11T02:37:21.538Z,1011.35
2019-05-11T02:37:51.436Z,1011.36
2019-05-11T02:38:21.491Z,1011.32
2019-05-11T02:38:51.409Z,1011.31
2019-05-11T02:39:54.141Z,1011.32
2019-05-11T02:40:21.487Z,1011.31
2019-05-11T02:40:51.402Z,1011.28
2019-05-11T02:41:35.952Z,1011.29
2019-05-11T02:42:21.464Z,1011.32
2019-05-11T02:42:51.400Z,1011.30
2019-05-11T02:43:21.505Z,1011.33
2019-05-11T02:43:54.147Z,1011.32
2019-05-11T02:44:51.403Z,1011.32
2019-05-11T02:45:21.478Z,1011.31
2019-05-11T02:45:51.401Z,1011.30
2019-05-11T02:46:21.468Z,1011.28
2019-05-11T02:47:21.463Z,1011.27
2019-05-11T02:47:51.731Z,1011.27
2019-05-11T02:48:21.464Z,1011.27
2019-05-11T02:48:51.406Z,1011.29
2019-05-11T02:49:51.410Z,1011.31
2019-05-11T02:50:24.254Z,1011.30
2019-05-11T02:50:51.412Z,1011.28
2019-05-11T02:51:21.460Z,1011.27
2019-05-11T02:52:21.462Z,1011.26
2019-05-11T02:52:51.406Z,1011.24
2019-05-11T02:53:21.509Z,1011.21
2019-05-11T02:53:51.409Z,1011.22
2019-05-11T02:54:24.182Z,1011.21
2019-05-11T02:55:21.466Z,1011.23
2019-05-11T02:55:51.406Z,1011.18
2019-05-11T02:56:21.463Z,1011.19
2019-05-11T02:57:21.465Z,1011.20
2019-05-11T02:57:51.446Z,1011.19
2019-05-11T02:58:21.471Z,1011.20
2019-05-11T02:58:51.405Z,1011.19
2019-05-11T02:59:51.409Z,1011.21
2019-05-11T03:00:21.474Z,1011.21
2019-05-11T03:00:54.218Z,1011.28
2019-05-11T03:01:21.484Z,1011.33
2019-05-11T03:02:21.473Z,1011.37
2019-05-11T03:02:51.411Z,1011.31
2019-05-11T03:03:21.471Z,1011.30
2019-05-11T03:03:51.457Z,1011.25
2019-05-11T03:04:54.350Z,1011.17
2019-05-11T03:05:21.465Z,1011.17
2019-05-11T03:05:51.412Z,1011.18
2019-05-11T03:06:21.479Z,1011.21
2019-05-11T03:07:21.472Z,1011.20
2019-05-11T03:07:51.411Z,1011.21
2019-05-11T03:08:21.473Z,1011.22
2019-05-11T03:08:51.505Z,1011.21
2019-05-11T03:09:51.415Z,1011.13
2019-05-11T03:10:21.495Z,1011.08
2019-05-11T03:10:51.413Z,1011.06
2019-05-11T03:11:24.328Z,1011.06
2019-05-11T03:11:56.684Z,1011.05
2019-05-11T03:12:51.407Z,1010.98
2019-05-11T03:13:21.470Z,1010.93
2019-05-11T03:13:51.408Z,1010.90
2019-05-11T03:14:51.419Z,1010.81
2019-05-11T03:15:24.360Z,1010.79
2019-05-11T03:15:51.419Z,1010.76
2019-05-11T03:16:21.467Z,1010.77
2019-05-11T03:17:21.471Z,1010.81
2019-05-11T03:17:51.413Z,1010.80
2019-05-11T03:18:21.474Z,1010.80
2019-05-11T03:18:51.425Z,1010.79
2019-05-11T03:19:51.421Z,1010.80
2019-05-11T03:20:21.478Z,1010.82
2019-05-11T03:20:51.418Z,1010.81
2019-05-11T03:21:21.475Z,1010.83
2019-05-11T03:21:54.243Z,1010.82
2019-05-11T03:22:51.417Z,1010.83
2019-05-11T03:23:21.482Z,1010.86
2019-05-11T03:23:51.411Z,1010.86
2019-05-11T03:24:24.492Z,1010.87
2019-05-11T03:25:21.474Z,1010.87
2019-05-11T03:25:54.256Z,1010.87
2019-05-11T03:26:21.468Z,1010.86
2019-05-11T03:27:21.481Z,1010.84
2019-05-11T03:27:51.414Z,1010.84
2019-05-11T03:28:21.472Z,1010.80
2019-05-11T03:28:51.422Z,1010.80
2019-05-11T03:29:51.428Z,1010.78
2019-05-11T03:30:21.480Z,1010.76
2019-05-11T03:30:51.522Z,1010.76
2019-05-11T03:31:21.487Z,1010.77
2019-05-11T03:32:24.368Z,1010.76
2019-05-11T03:32:51.631Z,1010.78
2019-05-11T03:33:21.536Z,1010.81
2019-05-11T03:33:51.423Z,1010.81
2019-05-11T03:34:51.419Z,1010.82
2019-05-11T03:35:21.492Z,1010.85
2019-05-11T03:35:51.424Z,1010.87
2019-05-11T03:36:24.278Z,1010.88
2019-05-11T03:37:21.553Z,1010.96
2019-05-11T03:37:51.435Z,1011.03
2019-05-11T03:38:21.482Z,1011.11
2019-05-11T03:38:51.421Z,1011.15
2019-05-11T03:39:51.418Z,1011.26
2019-05-11T03:40:21.482Z,1011.28
2019-05-11T03:40:51.428Z,1011.31
2019-05-11T03:41:21.490Z,1011.30
2019-05-11T03:42:21.480Z,1011.23
2019-05-11T03:42:54.199Z,1011.16
2019-05-11T03:43:21.483Z,1011.15
2019-05-11T03:43:51.429Z,1011.11
2019-05-11T03:44:51.417Z,1011.09
2019-05-11T03:45:21.484Z,1011.14
2019-05-11T03:45:51.419Z,1011.16
2019-05-11T03:46:21.479Z,1011.21
2019-05-11T03:46:54.212Z,1011.24
2019-05-11T03:47:51.426Z,1011.22
2019-05-11T03:48:21.476Z,1011.20
2019-05-11T03:48:51.419Z,1011.15
2019-05-11T03:49:51.422Z,1011.09
2019-05-11T03:50:21.483Z,1011.09
2019-05-11T03:50:51.506Z,1011.04
2019-05-11T03:51:21.487Z,1011.04
2019-05-11T03:52:21.488Z,1011.02
2019-05-11T03:52:51.419Z,1010.93
2019-05-11T03:53:24.318Z,1010.92
2019-05-11T03:53:51.425Z,1010.96
2019-05-11T03:54:51.421Z,1010.98
2019-05-11T03:55:21.493Z,1010.98
2019-05-11T03:55:51.421Z,1010.93
2019-05-11T03:56:21.657Z,1010.87
2019-05-11T03:57:24.222Z,1010.77
2019-05-11T03:57:51.416Z,1010.71
2019-05-11T03:58:27.337Z,1010.63
2019-05-11T03:58:51.424Z,1010.62
2019-05-11T03:59:51.421Z,1010.72
2019-05-11T04:00:21.499Z,1010.77
2019-05-11T04:00:51.419Z,1010.78
2019-05-11T04:01:21.492Z,1010.80
2019-05-11T04:02:21.474Z,1010.75
2019-05-11T04:02:51.425Z,1010.74
2019-05-11T04:03:21.479Z,1010.68
2019-05-11T04:03:54.220Z,1010.65
2019-05-11T04:04:51.431Z,1010.73
2019-05-11T04:05:21.495Z,1010.73
2019-05-11T04:05:51.429Z,1010.77
2019-05-11T04:06:21.497Z,1010.79
2019-05-11T04:07:21.489Z,1010.81
2019-05-11T04:07:54.160Z,1010.77
2019-05-11T04:08:21.502Z,1010.76
2019-05-11T04:08:51.426Z,1010.78
2019-05-11T04:09:51.428Z,1010.71
2019-05-11T04:10:26.519Z,1010.70
2019-05-11T04:10:51.433Z,1010.69
2019-05-11T04:11:21.485Z,1010.68
2019-05-11T04:12:34.507Z,1010.66
2019-05-11T04:12:51.493Z,1010.71
2019-05-11T04:13:21.482Z,1010.73
2019-05-11T04:13:51.427Z,1010.78
2019-05-11T04:14:24.255Z,1010.80
2019-05-11T04:15:21.491Z,1010.77
2019-05-11T04:15:51.429Z,1010.77
2019-05-11T04:16:21.482Z,1010.79
2019-05-11T04:17:21.491Z,1010.72
2019-05-11T04:17:51.431Z,1010.73
2019-05-11T04:18:24.220Z,1010.71
2019-05-11T04:18:51.429Z,1010.73
2019-05-11T04:19:51.440Z,1010.78
2019-05-11T04:20:21.510Z,1010.75
2019-05-11T04:20:51.426Z,1010.77
2019-05-11T04:21:21.492Z,1010.77
2019-05-11T04:22:21.496Z,1010.79
2019-05-11T04:22:51.455Z,1010.78
2019-05-11T04:23:21.484Z,1010.79
2019-05-11T04:23:51.428Z,1010.83
2019-05-11T04:24:54.279Z,1010.76
2019-05-11T04:25:21.496Z,1010.81
2019-05-11T04:25:51.430Z,1010.84
2019-05-11T04:26:21.483Z,1010.92
2019-05-11T04:27:21.484Z,1011.06
2019-05-11T04:27:51.424Z,1011.09
2019-05-11T04:28:21.486Z,1011.09
2019-05-11T04:28:54.313Z,1011.17
2019-05-11T04:29:51.430Z,1011.18
2019-05-11T04:30:21.485Z,1011.09
2019-05-11T04:30:51.446Z,1011.12
2019-05-11T04:31:21.494Z,1011.08
2019-05-11T04:32:21.505Z,1011.07
2019-05-11T04:32:51.445Z,1011.09
2019-05-11T04:33:21.486Z,1011.10
2019-05-11T04:33:51.430Z,1011.11
2019-05-11T04:34:52.438Z,1011.05
2019-05-11T04:35:24.262Z,1011.06
2019-05-11T04:35:51.437Z,1011.07
2019-05-11T04:36:21.489Z,1011.13
2019-05-11T04:37:21.497Z,1011.11
2019-05-11T04:37:51.428Z,1011.13
2019-05-11T04:38:21.525Z,1011.08
2019-05-11T04:38:51.442Z,1011.10
2019-05-11T04:39:24.178Z,1011.09
2019-05-11T04:40:21.501Z,1011.11
2019-05-11T04:40:51.433Z,1011.08
2019-05-11T04:41:21.498Z,1011.11
2019-05-11T04:42:21.493Z,1011.18
2019-05-11T04:42:56.596Z,1011.18
2019-05-11T04:43:21.507Z,1011.26
2019-05-11T04:43:51.433Z,1011.25
2019-05-11T04:44:53.443Z,1011.25
2019-05-11T04:45:21.493Z,1011.25
2019-05-11T04:45:54.273Z,1011.28
2019-05-11T04:46:21.494Z,1011.23
2019-05-11T04:47:21.496Z,1011.20
2019-05-11T04:47:51.435Z,1011.19
2019-05-11T04:48:21.503Z,1011.20
2019-05-11T04:48:51.433Z,1011.26
2019-05-11T04:49:54.311Z,1011.29
2019-05-11T04:50:21.487Z,1011.35
2019-05-11T04:50:51.434Z,1011.32
2019-05-11T04:51:21.505Z,1011.28
2019-05-11T04:52:21.551Z,1011.33
2019-05-11T04:52:51.441Z,1011.39
2019-05-11T04:53:21.508Z,1011.42
2019-05-11T04:53:51.513Z,1011.39
2019-05-11T04:54:51.431Z,1011.42
2019-05-11T04:55:21.494Z,1011.43
2019-05-11T04:55:51.439Z,1011.44
2019-05-11T04:56:24.288Z,1011.40
2019-05-11T04:57:21.505Z,1011.40
2019-05-11T04:57:51.439Z,1011.41
2019-05-11T04:58:21.508Z,1011.38
2019-05-11T04:58:51.433Z,1011.42
2019-05-11T04:59:51.437Z,1011.34
2019-05-11T05:00:23.199Z,1011.32
2019-05-11T05:00:51.441Z,1011.25
2019-05-11T05:01:24.109Z,1011.20
2019-05-11T05:02:22.504Z,1011.24
2019-05-11T05:02:51.450Z,1011.27
2019-05-11T05:03:21.506Z,1011.30
2019-05-11T05:04:12.201Z,1011.33
2019-05-11T05:04:51.452Z,1011.33
2019-05-11T05:05:21.489Z,1011.30
2019-05-11T05:05:51.441Z,1011.30
2019-05-11T05:06:26.556Z,1011.29
2019-05-11T05:07:05.111Z,1011.28
2019-05-11T05:08:08.449Z,1011.23
2019-05-11T05:08:26.357Z,1011.19
2019-05-11T05:08:51.438Z,1011.18
2019-05-11T05:09:51.442Z,1011.19
2019-05-11T05:10:23.512Z,1011.14
2019-05-11T05:10:58.421Z,1011.15
2019-05-11T05:11:21.503Z,1011.15
2019-05-11T05:11:54.165Z,1011.18
2019-05-11T05:13:09.930Z,1011.21
2019-05-11T05:13:29.259Z,1011.24
2019-05-11T05:13:54.468Z,1011.23
2019-05-11T05:14:51.441Z,1011.30
2019-05-11T05:15:21.567Z,1011.23
2019-05-11T05:15:51.435Z,1011.16
2019-05-11T05:16:21.505Z,1011.12
2019-05-11T05:17:24.244Z,1011.33
2019-05-11T05:17:51.436Z,1011.34
2019-05-11T05:18:21.533Z,1011.31
2019-05-11T05:18:51.440Z,1011.34
2019-05-11T05:19:51.440Z,1011.26
2019-05-11T05:20:21.504Z,1011.25
2019-05-11T05:20:51.441Z,1011.30
2019-05-11T05:21:23.251Z,1011.27
2019-05-11T05:22:27.646Z,1011.30
2019-05-11T05:22:51.442Z,1011.26
2019-05-11T05:23:21.521Z,1011.23
2019-05-11T05:23:51.447Z,1011.15
2019-05-11T05:24:51.449Z,1011.19
2019-05-11T05:25:21.505Z,1011.20
2019-05-11T05:25:51.443Z,1011.24
2019-05-11T05:26:21.508Z,1011.21
2019-05-11T05:27:21.619Z,1011.25
2019-05-11T05:27:54.313Z,1011.19
2019-05-11T05:28:21.508Z,1011.22
2019-05-11T05:28:51.464Z,1011.19
2019-05-11T05:29:51.454Z,1011.18
2019-05-11T05:30:21.513Z,1011.19
2019-05-11T05:30:51.441Z,1011.19
2019-05-11T05:31:21.506Z,1011.20
2019-05-11T05:31:53.444Z,1011.17
2019-05-11T05:32:54.291Z,1011.25
2019-05-11T05:33:21.505Z,1011.29
2019-05-11T05:33:51.451Z,1011.26
2019-05-11T05:34:51.505Z,1011.26
2019-05-11T05:35:21.501Z,1011.25
2019-05-11T05:35:51.450Z,1011.23
2019-05-11T05:36:21.509Z,1011.18
2019-05-11T05:37:21.541Z,1011.15
2019-05-11T05:37:51.459Z,1011.18
2019-05-11T05:38:24.144Z,1011.18
2019-05-11T05:38:51.445Z,1011.18
2019-05-11T05:39:51.449Z,1011.22
2019-05-11T05:40:21.517Z,1011.26
2019-05-11T05:40:51.465Z,1011.29
2019-05-11T05:41:21.510Z,1011.33
2019-05-11T05:41:57.653Z,1011.35
2019-05-11T05:42:23.262Z,1011.30
2019-05-11T05:43:30.264Z,1011.29
2019-05-11T05:43:51.445Z,1011.24
2019-05-11T05:44:51.446Z,1011.23
2019-05-11T05:45:21.507Z,1011.22
2019-05-11T05:45:51.442Z,1011.26
2019-05-11T05:46:21.507Z,1011.28
2019-05-11T05:47:21.503Z,1011.34
2019-05-11T05:47:51.448Z,1011.32
2019-05-11T05:48:21.520Z,1011.36
2019-05-11T05:48:54.323Z,1011.39
2019-05-11T05:49:51.448Z,1011.19
2019-05-11T05:50:21.518Z,1011.11
2019-05-11T05:50:51.442Z,1011.09
2019-05-11T05:51:21.510Z,1011.16
2019-05-11T05:52:21.513Z,1011.24
2019-05-11T05:52:53.400Z,1011.27
2019-05-11T05:53:21.513Z,1011.31
2019-05-11T05:53:54.327Z,1011.32
2019-05-11T05:54:51.450Z,1011.32
2019-05-11T05:55:21.516Z,1011.32
2019-05-11T05:55:51.451Z,1011.33
2019-05-11T05:56:21.508Z,1011.28
2019-05-11T05:56:52.520Z,1011.30
2019-05-11T05:57:51.487Z,1011.32
2019-05-11T05:58:21.507Z,1011.31
2019-05-11T05:58:51.509Z,1011.32
2019-05-11T05:59:24.416Z,1011.30
2019-05-11T06:00:21.508Z,1011.37
2019-05-11T06:00:51.512Z,1011.33
2019-05-11T06:01:21.506Z,1011.32
2019-05-11T06:02:21.525Z,1011.30
2019-05-11T06:02:51.462Z,1011.32
2019-05-11T06:03:23.264Z,1011.32
2019-05-11T06:03:51.461Z,1011.26
2019-05-11T06:04:27.192Z,1011.26
2019-05-11T06:04:51.475Z,1011.29
2019-05-11T06:05:21.520Z,1011.31
2019-05-11T06:05:51.484Z,1011.37
2019-05-11T06:06:21.521Z,1011.36
2019-05-11T06:07:21.601Z,1011.41
2019-05-11T06:07:51.572Z,1011.42
2019-05-11T06:08:21.863Z,1011.43
2019-05-11T06:08:51.463Z,1011.46
2019-05-11T06:09:54.208Z,1011.42
2019-05-11T06:10:21.524Z,1011.35
2019-05-11T06:10:51.457Z,1011.33
2019-05-11T06:11:21.573Z,1011.37
2019-05-11T06:12:21.517Z,1011.39
2019-05-11T06:12:51.459Z,1011.45
2019-05-11T06:13:21.537Z,1011.47
2019-05-11T06:13:53.216Z,1011.53
2019-05-11T06:14:54.258Z,1011.50
2019-05-11T06:15:21.515Z,1011.46
2019-05-11T06:15:51.467Z,1011.51
2019-05-11T06:16:21.520Z,1011.52
2019-05-11T06:17:21.561Z,1011.49
2019-05-11T06:17:51.488Z,1011.46
2019-05-11T06:18:21.521Z,1011.48
2019-05-11T06:18:51.504Z,1011.47
2019-05-11T06:19:51.457Z,1011.46
2019-05-11T06:20:24.113Z,1011.43
2019-05-11T06:20:51.456Z,1011.43
2019-05-11T06:21:21.514Z,1011.43
2019-05-11T06:22:21.527Z,1011.46
2019-05-11T06:22:51.460Z,1011.51
2019-05-11T06:23:21.532Z,1011.48
2019-05-11T06:23:51.462Z,1011.46
2019-05-11T06:24:23.283Z,1011.45
2019-05-11T06:25:24.285Z,1011.43
2019-05-11T06:25:51.489Z,1011.48
2019-05-11T06:26:21.523Z,1011.50
2019-05-11T06:27:21.512Z,1011.46
2019-05-11T06:27:51.476Z,1011.44
2019-05-11T06:28:21.509Z,1011.45
2019-05-11T06:28:51.458Z,1011.49
2019-05-11T06:29:23.533Z,1011.50
2019-05-11T06:30:21.511Z,1011.51
2019-05-11T06:30:54.150Z,1011.51
2019-05-11T06:31:21.523Z,1011.55
2019-05-11T06:32:21.518Z,1011.56
2019-05-11T06:32:51.460Z,1011.58
2019-05-11T06:33:21.515Z,1011.58
2019-05-11T06:33:51.454Z,1011.58
2019-05-11T06:34:53.265Z,1011.59
2019-05-11T06:35:23.534Z,1011.58
2019-05-11T06:35:54.314Z,1011.58
2019-05-11T06:36:21.560Z,1011.55
2019-05-11T06:37:21.675Z,1011.57
2019-05-11T06:37:51.458Z,1011.57
2019-05-11T06:38:21.540Z,1011.57
2019-05-11T06:38:51.468Z,1011.56
2019-05-11T06:39:51.508Z,1011.52
2019-05-11T06:40:21.518Z,1011.56
2019-05-11T06:40:51.481Z,1011.59
2019-05-11T06:41:24.146Z,1011.59
2019-05-11T06:42:21.531Z,1011.53
2019-05-11T06:42:51.459Z,1011.56
2019-05-11T06:43:21.533Z,1011.57
2019-05-11T06:44:01.606Z,1011.58
2019-05-11T06:44:51.460Z,1011.54
2019-05-11T06:45:23.339Z,1011.57
2019-05-11T06:45:51.465Z,1011.57
2019-05-11T06:46:24.244Z,1011.57
2019-05-11T06:47:21.531Z,1011.56
2019-05-11T06:47:51.491Z,1011.58
2019-05-11T06:48:21.525Z,1011.60
2019-05-11T06:48:51.460Z,1011.60
2019-05-11T06:49:51.462Z,1011.57
2019-05-11T06:50:21.570Z,1011.61
2019-05-11T06:50:51.472Z,1011.61
2019-05-11T06:51:21.534Z,1011.66
2019-05-11T06:51:54.299Z,1011.66
2019-05-11T06:52:51.467Z,1011.60
2019-05-11T06:53:21.521Z,1011.59
2019-05-11T06:53:51.463Z,1011.60
2019-05-11T06:54:51.471Z,1011.61
2019-05-11T06:55:21.520Z,1011.58
2019-05-11T06:55:53.150Z,1011.56
2019-05-11T06:56:21.528Z,1011.57
2019-05-11T06:56:54.133Z,1011.58
2019-05-11T06:57:51.478Z,1011.59
2019-05-11T06:58:21.524Z,1011.59
2019-05-11T06:58:51.473Z,1011.57
2019-05-11T06:59:51.485Z,1011.53
2019-05-11T07:00:21.524Z,1011.51
2019-05-11T07:00:51.512Z,1011.52
2019-05-11T07:01:21.527Z,1011.54
2019-05-11T07:02:24.201Z,1011.51
2019-05-11T07:02:51.467Z,1011.54
2019-05-11T07:03:21.528Z,1011.54
2019-05-11T07:03:51.464Z,1011.57
2019-05-11T07:04:51.467Z,1011.61
2019-05-11T07:05:21.525Z,1011.60
2019-05-11T07:05:51.467Z,1011.56
2019-05-11T07:06:30.237Z,1011.61
2019-05-11T07:07:24.242Z,1011.70
2019-05-11T07:07:51.469Z,1011.68
2019-05-11T07:08:21.532Z,1011.64
2019-05-11T07:08:51.474Z,1011.66
2019-05-11T07:09:51.484Z,1011.61
2019-05-11T07:10:21.547Z,1011.62
2019-05-11T07:10:51.480Z,1011.65
2019-05-11T07:11:21.564Z,1011.67
2019-05-11T07:12:21.696Z,1011.68
2019-05-11T07:12:54.170Z,1011.68
2019-05-11T07:13:21.539Z,1011.72
2019-05-11T07:13:51.494Z,1011.72
2019-05-11T07:14:23.548Z,1011.77
2019-05-11T07:15:21.537Z,1011.79
2019-05-11T07:15:51.492Z,1011.79
2019-05-11T07:16:21.616Z,1011.80
2019-05-11T07:16:53.237Z,1011.82
2019-05-11T07:17:54.192Z,1011.84
2019-05-11T07:18:21.532Z,1011.77
2019-05-11T07:18:51.485Z,1011.78
2019-05-11T07:19:51.468Z,1011.77
2019-05-11T07:20:21.534Z,1011.79
2019-05-11T07:20:52.478Z,1011.80
2019-05-11T07:21:21.536Z,1011.83
2019-05-11T07:22:21.607Z,1011.77
2019-05-11T07:22:51.473Z,1011.81
2019-05-11T07:23:24.117Z,1011.77
2019-05-11T07:23:51.482Z,1011.79
2019-05-11T07:24:51.556Z,1011.76
2019-05-11T07:25:21.534Z,1011.75
2019-05-11T07:25:51.479Z,1011.77
2019-05-11T07:26:21.561Z,1011.74
2019-05-11T07:27:23.350Z,1011.73
2019-05-11T07:27:51.479Z,1011.71
2019-05-11T07:28:24.275Z,1011.70
2019-05-11T07:28:51.472Z,1011.74
2019-05-11T07:29:51.471Z,1011.65
2019-05-11T07:30:21.547Z,1011.64
2019-05-11T07:30:51.479Z,1011.74